createdAt,value
2018-08-30T00:00:00.629Z,151
2018-08-30T00:00:13.048Z,151
2018-08-30T00:00:25.477Z,151
2018-08-30T00:00:37.968Z,151
2018-08-30T00:00:50.390Z,151
2018-08-30T00:01:02.809Z,151
2018-08-30T00:01:15.221Z,151
2018-08-30T00:01:27.618Z,151
2018-08-30T00:01:40.057Z,151
2018-08-30T00:01:52.487Z,151
2018-08-30T00:02:04.906Z,151
2018-08-30T00:02:17.323Z,151
2018-08-30T00:02:29.735Z,151
2018-08-30T00:02:42.137Z,151
2018-08-30T00:02:54.974Z,151
2018-08-30T00:03:07.391Z,151
2018-08-30T00:03:19.812Z,151
2018-08-30T00:03:32.227Z,151
2018-08-30T00:03:44.679Z,151
2018-08-30T00:03:57.134Z,151
2018-08-30T00:04:09.555Z,151
2018-08-30T00:04:21.976Z,151
2018-08-30T00:04:34.397Z,151
2018-08-30T00:04:46.803Z,151
2018-08-30T00:04:59.204Z,151
2018-08-30T00:05:11.603Z,151
2018-08-30T00:05:24.140Z,151
2018-08-30T00:05:36.590Z,151
2018-08-30T00:05:48.993Z,151
2018-08-30T00:06:01.430Z,151
2018-08-30T00:06:13.826Z,151
2018-08-30T00:06:26.241Z,151
2018-08-30T00:06:38.649Z,151
2018-08-30T00:06:51.056Z,151
2018-08-30T00:07:03.570Z,151
2018-08-30T00:07:15.979Z,151
2018-08-30T00:07:28.385Z,151
2018-08-30T00:07:40.821Z,151
2018-08-30T00:07:53.269Z,151
2018-08-30T00:08:05.741Z,151
2018-08-30T00:08:18.130Z,151
2018-08-30T00:08:30.515Z,151
2018-08-30T00:08:42.918Z,151
2018-08-30T00:08:55.306Z,134
2018-08-30T00:09:07.716Z,117
2018-08-30T00:09:20.114Z,112
2018-08-30T00:09:32.518Z,112
2018-08-30T00:09:44.925Z,112
2018-08-30T00:09:57.327Z,113
2018-08-30T00:10:09.742Z,113
2018-08-30T00:10:22.141Z,113
2018-08-30T00:10:34.589Z,113
2018-08-30T00:10:47.013Z,113
2018-08-30T00:10:59.443Z,113
2018-08-30T00:11:11.842Z,113
2018-08-30T00:11:24.258Z,113
2018-08-30T00:11:36.670Z,113
2018-08-30T00:11:49.079Z,113
2018-08-30T00:12:01.508Z,113
2018-08-30T00:12:13.923Z,113
2018-08-30T00:12:26.324Z,113
2018-08-30T00:12:38.723Z,113
2018-08-30T00:12:51.304Z,113
2018-08-30T00:13:03.767Z,113
2018-08-30T00:13:16.176Z,113
2018-08-30T00:13:28.591Z,113
2018-08-30T00:13:41.002Z,113
2018-08-30T00:13:53.430Z,113
2018-08-30T00:14:05.828Z,113
2018-08-30T00:14:18.228Z,113
2018-08-30T00:14:30.621Z,113
2018-08-30T00:14:43.030Z,113
2018-08-30T00:14:55.433Z,112
2018-08-30T00:15:07.839Z,112
2018-08-30T00:15:20.243Z,112
2018-08-30T00:15:32.643Z,112
2018-08-30T00:15:45.068Z,112
2018-08-30T00:15:57.470Z,112
2018-08-30T00:16:09.867Z,112
2018-08-30T00:16:22.269Z,112
2018-08-30T00:16:34.651Z,112
2018-08-30T00:16:47.044Z,112
2018-08-30T00:16:59.440Z,112
2018-08-30T00:17:11.840Z,112
2018-08-30T00:17:24.255Z,112
2018-08-30T00:17:36.665Z,112
2018-08-30T00:17:49.180Z,112
2018-08-30T00:18:01.572Z,112
2018-08-30T00:18:14.042Z,112
2018-08-30T00:18:26.465Z,112
2018-08-30T00:18:38.864Z,112
2018-08-30T00:18:51.289Z,112
2018-08-30T00:19:03.692Z,112
2018-08-30T00:19:16.396Z,112
2018-08-30T00:19:28.798Z,112
2018-08-30T00:19:41.199Z,112
2018-08-30T00:19:53.598Z,112
2018-08-30T00:20:06.018Z,112
2018-08-30T00:20:18.427Z,112
2018-08-30T00:20:30.828Z,112
2018-08-30T00:20:43.245Z,112
2018-08-30T00:20:55.651Z,129
2018-08-30T00:21:08.107Z,129
2018-08-30T00:21:20.511Z,129
2018-08-30T00:21:32.925Z,129
2018-08-30T00:21:45.322Z,129
2018-08-30T00:21:57.726Z,129
2018-08-30T00:22:10.157Z,129
2018-08-30T00:22:22.566Z,129
2018-08-30T00:22:35.005Z,129
2018-08-30T00:22:47.712Z,129
2018-08-30T00:23:00.116Z,129
2018-08-30T00:23:12.536Z,129
2018-08-30T00:23:24.942Z,129
2018-08-30T00:23:37.538Z,129
2018-08-30T00:23:49.949Z,129
2018-08-30T00:24:02.362Z,129
2018-08-30T00:24:14.805Z,129
2018-08-30T00:24:27.230Z,129
2018-08-30T00:24:39.681Z,129
2018-08-30T00:24:52.099Z,129
2018-08-30T00:25:04.589Z,129
2018-08-30T00:25:16.987Z,129
2018-08-30T00:25:29.534Z,132
2018-08-30T00:25:41.954Z,132
2018-08-30T00:25:54.360Z,132
2018-08-30T00:26:06.769Z,132
2018-08-30T00:26:19.183Z,132
2018-08-30T00:26:31.892Z,132
2018-08-30T00:26:44.466Z,132
2018-08-30T00:26:56.937Z,132
2018-08-30T00:27:09.343Z,132
2018-08-30T00:27:21.795Z,132
2018-08-30T00:27:34.229Z,132
2018-08-30T00:27:46.631Z,132
2018-08-30T00:27:59.055Z,132
2018-08-30T00:28:11.449Z,132
2018-08-30T00:28:23.918Z,132
2018-08-30T00:28:36.490Z,132
2018-08-30T00:28:48.895Z,132
2018-08-30T00:29:01.367Z,132
2018-08-30T00:29:13.802Z,132
2018-08-30T00:29:26.221Z,132
2018-08-30T00:29:38.683Z,132
2018-08-30T00:29:51.080Z,132
2018-08-30T00:30:03.483Z,132
2018-08-30T00:30:15.903Z,132
2018-08-30T00:30:28.305Z,132
2018-08-30T00:30:40.706Z,113
2018-08-30T00:30:53.172Z,113
2018-08-30T00:31:05.583Z,113
2018-08-30T00:31:17.994Z,113
2018-08-30T00:31:30.417Z,113
2018-08-30T00:31:42.826Z,113
2018-08-30T00:31:55.225Z,113
2018-08-30T00:32:07.660Z,113
2018-08-30T00:32:20.239Z,113
2018-08-30T00:32:32.688Z,113
2018-08-30T00:32:45.103Z,113
2018-08-30T00:32:57.555Z,113
2018-08-30T00:33:09.980Z,113
2018-08-30T00:33:22.427Z,113
2018-08-30T00:33:34.846Z,113
2018-08-30T00:33:47.262Z,113
2018-08-30T00:33:59.674Z,113
2018-08-30T00:34:12.269Z,113
2018-08-30T00:34:24.701Z,113
2018-08-30T00:34:37.231Z,113
2018-08-30T00:34:49.639Z,113
2018-08-30T00:35:02.041Z,113
2018-08-30T00:35:14.462Z,113
2018-08-30T00:35:26.861Z,113
2018-08-30T00:35:39.280Z,113
2018-08-30T00:35:51.685Z,113
2018-08-30T00:36:04.280Z,113
2018-08-30T00:36:16.725Z,113
2018-08-30T00:36:29.152Z,113
2018-08-30T00:36:41.578Z,113
2018-08-30T00:36:53.984Z,126
2018-08-30T00:37:06.381Z,121
2018-08-30T00:37:18.783Z,121
2018-08-30T00:37:31.195Z,121
2018-08-30T00:37:43.604Z,121
2018-08-30T00:37:56.025Z,121
2018-08-30T00:38:08.453Z,121
2018-08-30T00:38:20.855Z,121
2018-08-30T00:38:33.279Z,121
2018-08-30T00:38:45.673Z,121
2018-08-30T00:38:58.090Z,121
2018-08-30T00:39:10.650Z,121
2018-08-30T00:39:23.090Z,121
2018-08-30T00:39:35.592Z,121
2018-08-30T00:39:48.142Z,121
2018-08-30T00:40:00.616Z,160
2018-08-30T00:40:13.050Z,176
2018-08-30T00:40:25.461Z,176
2018-08-30T00:40:38.034Z,176
2018-08-30T00:40:50.487Z,176
2018-08-30T00:41:02.895Z,176
2018-08-30T00:41:15.667Z,176
2018-08-30T00:41:29.260Z,176
2018-08-30T00:41:42.043Z,176
2018-08-30T00:41:54.477Z,176
2018-08-30T00:42:06.966Z,176
2018-08-30T00:42:19.544Z,176
2018-08-30T00:42:31.949Z,176
2018-08-30T00:42:44.346Z,176
2018-08-30T00:42:56.772Z,176
2018-08-30T00:43:09.363Z,176
2018-08-30T00:43:21.774Z,176
2018-08-30T00:43:34.187Z,176
2018-08-30T00:43:46.591Z,176
2018-08-30T00:43:59.024Z,176
2018-08-30T00:44:11.459Z,176
2018-08-30T00:44:23.883Z,176
2018-08-30T00:44:36.295Z,176
2018-08-30T00:44:48.706Z,176
2018-08-30T00:45:01.196Z,176
2018-08-30T00:45:13.575Z,176
2018-08-30T00:45:25.971Z,176
2018-08-30T00:45:38.387Z,176
2018-08-30T00:45:50.791Z,176
2018-08-30T00:46:03.191Z,176
2018-08-30T00:46:15.580Z,176
2018-08-30T00:46:27.979Z,176
2018-08-30T00:46:40.369Z,176
2018-08-30T00:46:52.774Z,176
2018-08-30T00:47:05.161Z,162
2018-08-30T00:47:17.551Z,162
2018-08-30T00:47:29.941Z,162
2018-08-30T00:47:42.343Z,162
2018-08-30T00:47:54.746Z,162
2018-08-30T00:48:07.218Z,162
2018-08-30T00:48:19.620Z,162
2018-08-30T00:48:32.039Z,162
2018-08-30T00:48:44.431Z,162
2018-08-30T00:48:56.869Z,162
2018-08-30T00:49:09.415Z,162
2018-08-30T00:49:21.820Z,162
2018-08-30T00:49:34.217Z,162
2018-08-30T00:49:46.626Z,162
2018-08-30T00:49:59.038Z,162
2018-08-30T00:50:11.455Z,162
2018-08-30T00:50:24.047Z,162
2018-08-30T00:50:36.462Z,162
2018-08-30T00:50:48.891Z,162
2018-08-30T00:51:01.341Z,161
2018-08-30T00:51:13.756Z,117
2018-08-30T00:51:26.163Z,117
2018-08-30T00:51:38.589Z,117
2018-08-30T00:51:51.142Z,117
2018-08-30T00:52:03.563Z,121
2018-08-30T00:52:15.977Z,125
2018-08-30T00:52:28.388Z,125
2018-08-30T00:52:40.791Z,125
2018-08-30T00:52:53.193Z,125
2018-08-30T00:53:05.592Z,125
2018-08-30T00:53:18.005Z,125
2018-08-30T00:53:30.414Z,125
2018-08-30T00:53:42.826Z,125
2018-08-30T00:53:55.231Z,126
2018-08-30T00:54:07.669Z,129
2018-08-30T00:54:20.092Z,129
2018-08-30T00:54:32.600Z,129
2018-08-30T00:54:45.311Z,129
2018-08-30T00:54:57.724Z,129
2018-08-30T00:55:10.137Z,129
2018-08-30T00:55:22.556Z,129
2018-08-30T00:55:34.988Z,129
2018-08-30T00:55:47.392Z,129
2018-08-30T00:55:59.810Z,129
2018-08-30T00:56:12.213Z,129
2018-08-30T00:56:24.639Z,129
2018-08-30T00:56:37.052Z,129
2018-08-30T00:56:49.460Z,129
2018-08-30T00:57:01.875Z,129
2018-08-30T00:57:14.302Z,129
2018-08-30T00:57:26.780Z,129
2018-08-30T00:57:39.235Z,129
2018-08-30T00:57:51.640Z,129
2018-08-30T00:58:04.074Z,129
2018-08-30T00:58:16.489Z,129
2018-08-30T00:58:28.924Z,129
2018-08-30T00:58:41.342Z,129
2018-08-30T00:58:53.746Z,129
2018-08-30T00:59:06.166Z,129
2018-08-30T00:59:18.568Z,129
2018-08-30T00:59:30.985Z,129
2018-08-30T00:59:43.425Z,129
2018-08-30T00:59:55.860Z,129
2018-08-30T01:00:08.357Z,129
2018-08-30T01:00:20.790Z,129
2018-08-30T01:00:33.288Z,129
2018-08-30T01:00:45.782Z,129
2018-08-30T01:00:58.191Z,129
2018-08-30T01:01:10.600Z,129
2018-08-30T01:01:23.090Z,129
2018-08-30T01:01:35.521Z,129
2018-08-30T01:01:47.946Z,129
2018-08-30T01:02:00.351Z,129
2018-08-30T01:02:12.764Z,129
2018-08-30T01:02:25.212Z,129
2018-08-30T01:02:37.676Z,129
2018-08-30T01:02:50.261Z,129
2018-08-30T01:03:02.687Z,129
2018-08-30T01:03:15.102Z,129
2018-08-30T01:03:27.521Z,129
2018-08-30T01:03:39.948Z,129
2018-08-30T01:03:52.380Z,129
2018-08-30T01:04:04.798Z,129
2018-08-30T01:04:17.234Z,129
2018-08-30T01:04:29.659Z,129
2018-08-30T01:04:42.077Z,129
2018-08-30T01:04:54.474Z,129
2018-08-30T01:05:06.879Z,129
2018-08-30T01:05:19.279Z,129
2018-08-30T01:05:31.799Z,129
2018-08-30T01:05:44.210Z,129
2018-08-30T01:05:56.610Z,129
2018-08-30T01:06:09.028Z,129
2018-08-30T01:06:21.458Z,129
2018-08-30T01:06:33.858Z,129
2018-08-30T01:06:46.284Z,129
2018-08-30T01:06:58.675Z,129
2018-08-30T01:07:11.071Z,129
2018-08-30T01:07:23.466Z,129
2018-08-30T01:07:35.993Z,129
2018-08-30T01:07:48.450Z,129
2018-08-30T01:08:00.920Z,129
2018-08-30T01:08:13.326Z,129
2018-08-30T01:08:25.781Z,129
2018-08-30T01:08:38.214Z,129
2018-08-30T01:08:50.654Z,129
2018-08-30T01:09:03.070Z,129
2018-08-30T01:09:15.497Z,129
2018-08-30T01:09:27.912Z,129
2018-08-30T01:09:40.362Z,129
2018-08-30T01:09:52.799Z,129
2018-08-30T01:10:05.238Z,129
2018-08-30T01:10:17.627Z,129
2018-08-30T01:10:30.032Z,129
2018-08-30T01:10:42.545Z,129
2018-08-30T01:10:54.936Z,129
2018-08-30T01:11:07.388Z,129
2018-08-30T01:11:19.800Z,129
2018-08-30T01:11:32.197Z,129
2018-08-30T01:11:44.606Z,129
2018-08-30T01:11:57.011Z,129
2018-08-30T01:12:09.470Z,129
2018-08-30T01:12:21.888Z,129
2018-08-30T01:12:34.294Z,129
2018-08-30T01:12:46.689Z,129
2018-08-30T01:12:59.098Z,129
2018-08-30T01:13:11.511Z,122
2018-08-30T01:13:24.046Z,122
2018-08-30T01:13:36.461Z,122
2018-08-30T01:13:48.848Z,122
2018-08-30T01:14:01.255Z,122
2018-08-30T01:14:13.674Z,122
2018-08-30T01:14:26.123Z,122
2018-08-30T01:14:38.537Z,122
2018-08-30T01:14:50.939Z,94
2018-08-30T01:15:03.388Z,94
2018-08-30T01:15:15.811Z,94
2018-08-30T01:15:28.220Z,94
2018-08-30T01:15:40.652Z,94
2018-08-30T01:15:53.067Z,94
2018-08-30T01:16:05.476Z,94
2018-08-30T01:16:17.883Z,94
2018-08-30T01:16:30.279Z,94
2018-08-30T01:16:42.683Z,94
2018-08-30T01:16:55.081Z,94
2018-08-30T01:17:07.479Z,94
2018-08-30T01:17:19.880Z,96
2018-08-30T01:17:32.286Z,96
2018-08-30T01:17:44.678Z,96
2018-08-30T01:17:57.091Z,96
2018-08-30T01:18:09.487Z,96
2018-08-30T01:18:21.872Z,96
2018-08-30T01:18:34.285Z,96
2018-08-30T01:18:46.689Z,96
2018-08-30T01:18:59.093Z,96
2018-08-30T01:19:11.630Z,96
2018-08-30T01:19:24.032Z,96
2018-08-30T01:19:36.456Z,92
2018-08-30T01:19:48.868Z,92
2018-08-30T01:20:01.286Z,73
2018-08-30T01:20:13.708Z,93
2018-08-30T01:20:26.200Z,82
2018-08-30T01:20:38.609Z,82
2018-08-30T01:20:51.032Z,84
2018-08-30T01:21:03.421Z,84
2018-08-30T01:21:15.846Z,95
2018-08-30T01:21:28.251Z,95
2018-08-30T01:21:40.754Z,95
2018-08-30T01:21:53.143Z,95
2018-08-30T01:22:05.538Z,95
2018-08-30T01:22:17.984Z,84
2018-08-30T01:22:30.374Z,69
2018-08-30T01:22:42.913Z,75
2018-08-30T01:22:55.318Z,55
2018-08-30T01:23:07.764Z,85
2018-08-30T01:23:20.192Z,65
2018-08-30T01:23:32.780Z,67
2018-08-30T01:23:45.182Z,131
2018-08-30T01:23:57.568Z,128
2018-08-30T01:24:09.980Z,125
2018-08-30T01:24:22.397Z,111
2018-08-30T01:24:34.819Z,120
2018-08-30T01:24:47.241Z,138
2018-08-30T01:24:59.650Z,138
2018-08-30T01:25:12.219Z,116
2018-08-30T01:25:24.853Z,115
2018-08-30T01:25:37.250Z,115
2018-08-30T01:25:49.658Z,115
2018-08-30T01:26:02.048Z,115
2018-08-30T01:26:14.459Z,95
2018-08-30T01:26:26.869Z,89
2018-08-30T01:26:39.314Z,91
2018-08-30T01:26:51.713Z,95
2018-08-30T01:27:04.122Z,103
2018-08-30T01:27:16.526Z,106
2018-08-30T01:27:28.941Z,106
2018-08-30T01:27:41.354Z,106
2018-08-30T01:27:53.750Z,106
2018-08-30T01:28:06.171Z,106
2018-08-30T01:28:18.632Z,106
2018-08-30T01:28:31.268Z,106
2018-08-30T01:28:43.677Z,106
2018-08-30T01:28:56.097Z,106
2018-08-30T01:29:08.541Z,106
2018-08-30T01:29:21.012Z,106
2018-08-30T01:29:33.440Z,106
2018-08-30T01:29:45.869Z,106
2018-08-30T01:29:58.261Z,106
2018-08-30T01:30:10.741Z,106
2018-08-30T01:30:23.139Z,48
2018-08-30T01:30:35.568Z,48
2018-08-30T01:30:47.950Z,55
2018-08-30T01:31:00.382Z,56
2018-08-30T01:31:12.773Z,55
2018-08-30T01:31:25.179Z,61
2018-08-30T01:31:37.588Z,61
2018-08-30T01:31:49.987Z,61
2018-08-30T01:32:02.379Z,61
2018-08-30T01:32:14.911Z,61
2018-08-30T01:32:27.297Z,61
2018-08-30T01:32:39.755Z,61
2018-08-30T01:32:52.164Z,61
2018-08-30T01:33:04.553Z,61
2018-08-30T01:33:16.957Z,62
2018-08-30T01:33:29.363Z,62
2018-08-30T01:33:41.747Z,62
2018-08-30T01:33:54.162Z,62
2018-08-30T01:34:06.717Z,63
2018-08-30T01:34:19.329Z,63
2018-08-30T01:34:31.748Z,63
2018-08-30T01:34:44.179Z,63
2018-08-30T01:34:56.581Z,63
2018-08-30T01:35:09.029Z,63
2018-08-30T01:35:21.460Z,63
2018-08-30T01:35:33.864Z,62
2018-08-30T01:35:46.248Z,63
2018-08-30T01:35:58.636Z,62
2018-08-30T01:36:11.031Z,62
2018-08-30T01:36:23.446Z,62
2018-08-30T01:36:35.837Z,62
2018-08-30T01:36:48.227Z,63
2018-08-30T01:37:00.632Z,63
2018-08-30T01:37:13.121Z,63
2018-08-30T01:37:25.537Z,62
2018-08-30T01:37:37.954Z,62
2018-08-30T01:37:50.364Z,62
2018-08-30T01:38:02.770Z,62
2018-08-30T01:38:15.169Z,62
2018-08-30T01:38:27.595Z,63
2018-08-30T01:38:40.016Z,76
2018-08-30T01:38:52.470Z,76
2018-08-30T01:39:05.096Z,76
2018-08-30T01:39:17.514Z,129
2018-08-30T01:39:29.910Z,133
2018-08-30T01:39:42.315Z,133
2018-08-30T01:39:54.707Z,158
2018-08-30T01:40:07.132Z,158
2018-08-30T01:40:19.546Z,158
2018-08-30T01:40:32.097Z,158
2018-08-30T01:40:44.495Z,158
2018-08-30T01:40:56.891Z,154
2018-08-30T01:41:09.285Z,154
2018-08-30T01:41:21.693Z,154
2018-08-30T01:41:34.099Z,154
2018-08-30T01:41:46.509Z,154
2018-08-30T01:41:58.913Z,154
2018-08-30T01:42:11.324Z,154
2018-08-30T01:42:23.860Z,154
2018-08-30T01:42:36.287Z,154
2018-08-30T01:42:48.696Z,154
2018-08-30T01:43:01.123Z,154
2018-08-30T01:43:13.553Z,154
2018-08-30T01:43:25.979Z,154
2018-08-30T01:43:38.406Z,154
2018-08-30T01:43:50.825Z,154
2018-08-30T01:44:03.230Z,154
2018-08-30T01:44:15.645Z,154
2018-08-30T01:44:28.103Z,154
2018-08-30T01:44:40.501Z,154
2018-08-30T01:44:52.918Z,154
2018-08-30T01:45:05.320Z,154
2018-08-30T01:45:17.703Z,154
2018-08-30T01:45:30.094Z,154
2018-08-30T01:45:42.486Z,154
2018-08-30T01:45:54.867Z,154
2018-08-30T01:46:07.279Z,154
2018-08-30T01:46:19.679Z,154
2018-08-30T01:46:32.073Z,154
2018-08-30T01:46:44.482Z,154
2018-08-30T01:46:56.885Z,154
2018-08-30T01:47:09.296Z,153
2018-08-30T01:47:21.723Z,153
2018-08-30T01:47:34.147Z,152
2018-08-30T01:47:46.581Z,152
2018-08-30T01:47:58.986Z,152
2018-08-30T01:48:11.389Z,152
2018-08-30T01:48:23.801Z,152
2018-08-30T01:48:36.188Z,152
2018-08-30T01:48:48.616Z,152
2018-08-30T01:49:01.013Z,152
2018-08-30T01:49:13.641Z,152
2018-08-30T01:49:26.044Z,152
2018-08-30T01:49:38.450Z,152
2018-08-30T01:49:50.845Z,152
2018-08-30T01:50:03.288Z,152
2018-08-30T01:50:15.693Z,152
2018-08-30T01:50:28.102Z,152
2018-08-30T01:50:40.503Z,152
2018-08-30T01:50:52.887Z,152
2018-08-30T01:51:05.290Z,152
2018-08-30T01:51:17.714Z,152
2018-08-30T01:51:30.133Z,152
2018-08-30T01:51:42.617Z,152
2018-08-30T01:51:55.021Z,127
2018-08-30T01:52:07.421Z,113
2018-08-30T01:52:19.810Z,117
2018-08-30T01:52:32.212Z,123
2018-08-30T01:52:44.620Z,123
2018-08-30T01:52:57.036Z,123
2018-08-30T01:53:09.435Z,123
2018-08-30T01:53:21.846Z,123
2018-08-30T01:53:34.255Z,124
2018-08-30T01:53:46.645Z,124
2018-08-30T01:53:59.072Z,124
2018-08-30T01:54:11.473Z,124
2018-08-30T01:54:23.869Z,124
2018-08-30T01:54:36.690Z,124
2018-08-30T01:54:49.117Z,124
2018-08-30T01:55:01.529Z,124
2018-08-30T01:55:13.972Z,124
2018-08-30T01:55:26.374Z,124
2018-08-30T01:55:38.785Z,124
2018-08-30T01:55:51.169Z,124
2018-08-30T01:56:03.566Z,124
2018-08-30T01:56:15.959Z,124
2018-08-30T01:56:28.354Z,124
2018-08-30T01:56:40.763Z,124
2018-08-30T01:56:53.177Z,124
2018-08-30T01:57:05.580Z,124
2018-08-30T01:57:17.993Z,124
2018-08-30T01:57:30.402Z,124
2018-08-30T01:57:42.814Z,124
2018-08-30T01:57:55.229Z,150
2018-08-30T01:58:07.631Z,150
2018-08-30T01:58:20.053Z,150
2018-08-30T01:58:32.456Z,150
2018-08-30T01:58:44.914Z,150
2018-08-30T01:58:57.396Z,150
2018-08-30T01:59:09.833Z,150
2018-08-30T01:59:22.251Z,150
2018-08-30T01:59:34.654Z,150
2018-08-30T01:59:47.071Z,150
2018-08-30T01:59:59.454Z,130
2018-08-30T02:00:11.871Z,123
2018-08-30T02:00:24.454Z,123
2018-08-30T02:00:36.864Z,126
2018-08-30T02:00:49.330Z,155
2018-08-30T02:01:01.760Z,148
2018-08-30T02:01:14.184Z,140
2018-08-30T02:01:26.640Z,129
2018-08-30T02:01:39.053Z,131
2018-08-30T02:01:51.484Z,131
2018-08-30T02:02:03.894Z,130
2018-08-30T02:02:16.289Z,131
2018-08-30T02:02:28.706Z,131
2018-08-30T02:02:41.109Z,131
2018-08-30T02:02:53.626Z,131
2018-08-30T02:03:06.038Z,131
2018-08-30T02:03:18.483Z,131
2018-08-30T02:03:30.883Z,131
2018-08-30T02:03:43.309Z,131
2018-08-30T02:03:55.711Z,132
2018-08-30T02:04:08.137Z,132
2018-08-30T02:04:20.554Z,134
2018-08-30T02:04:32.978Z,134
2018-08-30T02:04:45.394Z,134
2018-08-30T02:04:57.848Z,142
2018-08-30T02:05:10.317Z,141
2018-08-30T02:05:22.820Z,141
2018-08-30T02:05:35.380Z,141
2018-08-30T02:05:47.777Z,142
2018-08-30T02:06:00.182Z,142
2018-08-30T02:06:12.589Z,142
2018-08-30T02:06:25.000Z,142
2018-08-30T02:06:37.403Z,147
2018-08-30T02:06:49.822Z,136
2018-08-30T02:07:02.244Z,141
2018-08-30T02:07:14.649Z,133
2018-08-30T02:07:27.145Z,132
2018-08-30T02:07:39.560Z,132
2018-08-30T02:07:51.949Z,133
2018-08-30T02:08:04.353Z,132
2018-08-30T02:08:16.887Z,133
2018-08-30T02:08:29.292Z,134
2018-08-30T02:08:41.716Z,134
2018-08-30T02:08:54.108Z,115
2018-08-30T02:09:06.508Z,115
2018-08-30T02:09:18.964Z,117
2018-08-30T02:09:31.394Z,134
2018-08-30T02:09:43.791Z,134
2018-08-30T02:09:56.183Z,135
2018-08-30T02:10:08.600Z,134
2018-08-30T02:10:21.011Z,134
2018-08-30T02:10:33.406Z,134
2018-08-30T02:10:46.010Z,151
2018-08-30T02:10:58.399Z,153
2018-08-30T02:11:10.798Z,153
2018-08-30T02:11:23.203Z,153
2018-08-30T02:11:35.595Z,153
2018-08-30T02:11:48.017Z,153
2018-08-30T02:12:00.422Z,153
2018-08-30T02:12:12.831Z,153
2018-08-30T02:12:25.275Z,152
2018-08-30T02:12:37.699Z,132
2018-08-30T02:12:50.111Z,142
2018-08-30T02:13:02.516Z,141
2018-08-30T02:13:14.911Z,149
2018-08-30T02:13:27.322Z,153
2018-08-30T02:13:39.737Z,153
2018-08-30T02:13:52.272Z,153
2018-08-30T02:14:04.698Z,153
2018-08-30T02:14:17.113Z,153
2018-08-30T02:14:29.527Z,153
2018-08-30T02:14:41.917Z,153
2018-08-30T02:14:54.309Z,151
2018-08-30T02:15:06.721Z,151
2018-08-30T02:15:19.130Z,151
2018-08-30T02:15:31.531Z,151
2018-08-30T02:15:43.932Z,142
2018-08-30T02:15:56.334Z,122
2018-08-30T02:16:08.740Z,115
2018-08-30T02:16:21.129Z,117
2018-08-30T02:16:33.658Z,138
2018-08-30T02:16:46.046Z,138
2018-08-30T02:16:58.469Z,143
2018-08-30T02:17:10.878Z,142
2018-08-30T02:17:23.275Z,153
2018-08-30T02:17:35.678Z,153
2018-08-30T02:17:48.081Z,137
2018-08-30T02:18:00.678Z,137
2018-08-30T02:18:13.105Z,143
2018-08-30T02:18:25.528Z,148
2018-08-30T02:18:37.941Z,139
2018-08-30T02:18:50.338Z,153
2018-08-30T02:19:02.738Z,153
2018-08-30T02:19:15.301Z,142
2018-08-30T02:19:27.756Z,154
2018-08-30T02:19:40.178Z,153
2018-08-30T02:19:52.608Z,153
2018-08-30T02:20:05.002Z,153
2018-08-30T02:20:17.418Z,144
2018-08-30T02:20:29.824Z,144
2018-08-30T02:20:42.244Z,144
2018-08-30T02:20:54.643Z,139
2018-08-30T02:21:07.083Z,166
2018-08-30T02:21:19.482Z,166
2018-08-30T02:21:31.878Z,166
2018-08-30T02:21:44.292Z,136
2018-08-30T02:21:56.745Z,142
2018-08-30T02:22:09.160Z,142
2018-08-30T02:22:21.559Z,142
2018-08-30T02:22:34.008Z,121
2018-08-30T02:22:46.489Z,121
2018-08-30T02:22:58.987Z,117
2018-08-30T02:23:11.402Z,140
2018-08-30T02:23:23.837Z,142
2018-08-30T02:23:36.358Z,152
2018-08-30T02:23:48.767Z,153
2018-08-30T02:24:01.183Z,130
2018-08-30T02:24:13.621Z,138
2018-08-30T02:24:26.062Z,150
2018-08-30T02:24:38.473Z,128
2018-08-30T02:24:50.890Z,134
2018-08-30T02:25:03.310Z,134
2018-08-30T02:25:15.721Z,134
2018-08-30T02:25:28.263Z,134
2018-08-30T02:25:40.653Z,155
2018-08-30T02:25:53.120Z,155
2018-08-30T02:26:05.577Z,108
2018-08-30T02:26:17.986Z,115
2018-08-30T02:26:30.404Z,112
2018-08-30T02:26:42.931Z,114
2018-08-30T02:26:55.405Z,114
2018-08-30T02:27:07.814Z,129
2018-08-30T02:27:20.254Z,140
2018-08-30T02:27:32.677Z,140
2018-08-30T02:27:45.180Z,144
2018-08-30T02:27:57.848Z,125
2018-08-30T02:28:10.276Z,125
2018-08-30T02:28:22.725Z,125
2018-08-30T02:28:35.186Z,125
2018-08-30T02:28:47.603Z,125
2018-08-30T02:29:00.050Z,125
2018-08-30T02:29:12.518Z,125
2018-08-30T02:29:24.995Z,125
2018-08-30T02:29:37.420Z,125
2018-08-30T02:29:49.861Z,125
2018-08-30T02:30:02.293Z,125
2018-08-30T02:30:14.726Z,125
2018-08-30T02:30:27.152Z,125
2018-08-30T02:30:39.562Z,125
2018-08-30T02:30:51.981Z,125
2018-08-30T02:31:04.390Z,125
2018-08-30T02:31:16.804Z,125
2018-08-30T02:31:29.212Z,125
2018-08-30T02:31:41.635Z,125
2018-08-30T02:31:54.047Z,138
2018-08-30T02:32:06.474Z,138
2018-08-30T02:32:19.054Z,138
2018-08-30T02:32:31.461Z,138
2018-08-30T02:32:43.859Z,138
2018-08-30T02:32:56.276Z,153
2018-08-30T02:33:08.688Z,153
2018-08-30T02:33:21.103Z,134
2018-08-30T02:33:33.515Z,134
2018-08-30T02:33:45.939Z,134
2018-08-30T02:33:58.343Z,134
2018-08-30T02:34:10.894Z,146
2018-08-30T02:34:23.514Z,146
2018-08-30T02:34:36.115Z,146
2018-08-30T02:34:48.577Z,146
2018-08-30T02:35:00.971Z,146
2018-08-30T02:35:13.417Z,146
2018-08-30T02:35:25.808Z,146
2018-08-30T02:35:38.216Z,146
2018-08-30T02:35:50.621Z,146
2018-08-30T02:36:03.005Z,146
2018-08-30T02:36:15.428Z,147
2018-08-30T02:36:27.807Z,147
2018-08-30T02:36:40.214Z,108
2018-08-30T02:36:52.652Z,108
2018-08-30T02:37:05.072Z,108
2018-08-30T02:37:17.473Z,108
2018-08-30T02:37:29.885Z,108
2018-08-30T02:37:42.297Z,108
2018-08-30T02:37:54.727Z,108
2018-08-30T02:38:07.162Z,108
2018-08-30T02:38:19.566Z,108
2018-08-30T02:38:31.986Z,108
2018-08-30T02:38:44.400Z,108
2018-08-30T02:38:56.825Z,108
2018-08-30T02:39:09.379Z,108
2018-08-30T02:39:21.795Z,108
2018-08-30T02:39:34.249Z,79
2018-08-30T02:39:46.683Z,79
2018-08-30T02:39:59.115Z,79
2018-08-30T02:40:11.529Z,79
2018-08-30T02:40:23.947Z,79
2018-08-30T02:40:36.486Z,79
2018-08-30T02:40:48.904Z,79
2018-08-30T02:41:01.308Z,79
2018-08-30T02:41:13.709Z,79
2018-08-30T02:41:26.117Z,79
2018-08-30T02:41:38.548Z,79
2018-08-30T02:41:50.959Z,79
2018-08-30T02:42:03.368Z,79
2018-08-30T02:42:15.989Z,79
2018-08-30T02:42:28.394Z,79
2018-08-30T02:42:40.797Z,79
2018-08-30T02:42:53.222Z,79
2018-08-30T02:43:05.645Z,79
2018-08-30T02:43:18.087Z,79
2018-08-30T02:43:30.506Z,79
2018-08-30T02:43:42.939Z,79
2018-08-30T02:43:55.336Z,79
2018-08-30T02:44:07.739Z,79
2018-08-30T02:44:20.165Z,79
2018-08-30T02:44:32.562Z,79
2018-08-30T02:44:45.010Z,79
2018-08-30T02:44:57.432Z,79
2018-08-30T02:45:09.855Z,79
2018-08-30T02:45:22.274Z,79
2018-08-30T02:45:34.695Z,79
2018-08-30T02:45:47.109Z,79
2018-08-30T02:45:59.509Z,79
2018-08-30T02:46:11.932Z,79
2018-08-30T02:46:24.348Z,127
2018-08-30T02:46:36.755Z,127
2018-08-30T02:46:49.175Z,133
2018-08-30T02:47:01.597Z,134
2018-08-30T02:47:13.988Z,166
2018-08-30T02:47:26.452Z,168
2018-08-30T02:47:38.880Z,168
2018-08-30T02:47:51.323Z,167
2018-08-30T02:48:03.736Z,167
2018-08-30T02:48:16.148Z,167
2018-08-30T02:48:28.564Z,167
2018-08-30T02:48:40.970Z,167
2018-08-30T02:48:53.573Z,167
2018-08-30T02:49:07.001Z,167
2018-08-30T02:49:20.114Z,166
2018-08-30T02:49:32.527Z,165
2018-08-30T02:49:44.981Z,146
2018-08-30T02:49:57.409Z,146
2018-08-30T02:50:09.846Z,146
2018-08-30T02:50:22.265Z,146
2018-08-30T02:50:34.686Z,146
2018-08-30T02:50:47.116Z,146
2018-08-30T02:50:59.555Z,146
2018-08-30T02:51:11.974Z,146
2018-08-30T02:51:24.384Z,142
2018-08-30T02:51:36.800Z,140
2018-08-30T02:51:49.340Z,140
2018-08-30T02:52:01.752Z,140